Flight Track Log - Related Links

Times and Time Zones

All times are in EST time to prevent confusion due to time zone crossing. See the JBU90 flight status page for this flight to view local times or setup timezone preferences in your user account.

Time Position Orientation Groundspeed Altitude Reporting Facility
EST Latitude Longitude Course Direction KTS MPH feet Rate Location/Type
Sat 12:20:57 AM 32.7372 -117.2047 35° Northeast 179 206 200  Level FlightAware ADS-B
Sat 12:21:13 AM 32.7408 -117.2207 285° West 173 199 1,200 3,000 Climbing FlightAware ADS-B
Sat 12:21:31 AM 32.7443 -117.2359 285° West 182 209 1,900 1,650 Climbing FlightAware ADS-B
Sat 12:21:53 AM 32.7497 -117.2589 286° West 205 236 2,300 1,077 Climbing FlightAware ADS-B
Sat 12:22:10 AM 32.7545 -117.2782 286° West 222 255 2,600 1,231 Climbing FlightAware ADS-B
Sat 12:22:32 AM 32.7575 -117.3061 277° West 248 285 3,100 1,600 Climbing FlightAware ADS-B
Sat 12:22:40 AM 32.7535 -117.3175 247° West 260 299 3,400 1,765 Climbing FlightAware ADS-B
Sat 12:22:49 AM 32.7465 -117.3268 228° Southwest 270 311 3,600 1,909 Climbing FlightAware ADS-B
Sat 12:23:02 AM 32.7323 -117.3348 205° Southwest 281 323 4,100 2,455 Climbing FlightAware ADS-B
Sat 12:23:11 AM 32.7212 -117.3356 183° South 286 329 4,500 3,176 Climbing FlightAware ADS-B
Sat 12:23:19 AM 32.7084 -117.3313 164° South 289 333 5,000 3,143 Climbing FlightAware ADS-B
Sat 12:23:32 AM 32.6936 -117.3206 149° Southeast 289 333 5,600 2,710 Climbing FlightAware ADS-B
Sat 12:23:50 AM 32.6777 -117.3016 135° Southeast 290 334 6,400 2,462 Climbing FlightAware ADS-B
Sat 12:24:11 AM 32.6597 -117.2767 131° Southeast 294 338 7,200 2,200 Climbing FlightAware ADS-B
Sat 12:24:20 AM 32.6553 -117.2666 117° Southeast 296 341 7,500 2,471 Climbing FlightAware ADS-B
Sat 12:24:28 AM 32.6512 -117.2493 106° East 297 342 7,900 2,800 Climbing FlightAware ADS-B
Sat 12:24:50 AM 32.6469 -117.2185 99° East 299 344 8,900 2,233 Climbing FlightAware ADS-B
Sat 12:25:11 AM 32.6419 -117.1830 99° East 309 356 9,500 1,765 Climbing FlightAware ADS-B
Sat 12:25:41 AM 32.6338 -117.1294 100° East 332 382 10,400 1,377 Climbing FlightAware ADS-B
Sat 12:26:12 AM 32.6245 -117.0705 101° East 360 414 10,900 943 Climbing FlightAware ADS-B
Sat 12:26:51 AM 32.6127 -116.9924 100° East 391 450 11,500 1,286 Climbing FlightAware ADS-B
Sat 12:27:08 AM 32.6126 -116.9548 90° East 394 453 12,100 2,000 Climbing FlightAware ADS-B
Sat 12:27:39 AM 32.6188 -116.8879 84° East 402 463 13,100 1,869 Climbing FlightAware ADS-B
Sat 12:28:09 AM 32.6295 -116.8204 79° East 411 473 14,000 1,636 Climbing FlightAware ADS-B
Sat 12:28:23 AM 32.6413 -116.7942 62° Northeast 413 475 14,300 1,548 Climbing FlightAware ADS-B
Sat 12:28:40 AM 32.6628 -116.7669 47° Northeast 416 479 14,800 1,538 Climbing FlightAware ADS-B
Sat 12:29:02 AM 32.7010 -116.7435 27° Northeast 419 482 15,300 1,475 Climbing FlightAware ADS-B
Sat 12:29:41 AM 32.7738 -116.7113 20° North 432 497 16,300 1,800 Climbing FlightAware ADS-B
Sat 12:30:12 AM 32.8277 -116.6765 28° Northeast 432 497 17,400 2,066 Climbing FlightAware ADS-B
Sat 12:30:42 AM 32.8814 -116.6419 28° Northeast 432 497 18,400 1,967 Climbing FlightAware ADS-B
Sat 12:31:13 AM 32.9349 -116.6076 28° Northeast 432 497 19,400 1,714 Climbing FlightAware ADS-B
Sat 12:31:52 AM 33.0031 -116.5639 28° Northeast 438 504 20,400 1,538 Climbing FlightAware ADS-B
Sat 12:32:31 AM 33.0755 -116.5174 28° Northeast 443 510 21,400 1,543 Climbing FlightAware ADS-B
Sat 12:33:02 AM 33.1296 -116.4826 28° Northeast 445 512 22,200 1,800 Climbing FlightAware ADS-B
Sat 12:33:11 AM 33.1442 -116.4732 28° Northeast 444 511 22,600 1,385 Climbing FlightAware ADS-B
Sat 12:33:41 AM 33.1951 -116.4404 28° Northeast 446 513 23,100 1,182 Climbing FlightAware ADS-B
Sat 12:34:17 AM 33.2680 -116.3933 28° Northeast 451 519 23,900 1,130 Climbing FlightAware ADS-B (KBNG)
Sat 12:34:50 AM 33.3241 -116.3572 28° Northeast 460 529 24,400 844 Climbing FlightAware ADS-B (KBNG)
Sat 12:35:21 AM 33.3871 -116.3153 29° Northeast 465 535 24,800 857 Climbing FlightAware ADS-B
Sat 12:35:39 AM 33.4152 -116.2869 40° Northeast 470 541 25,100 1,000 Climbing FlightAware ADS-B
Sat 12:36:09 AM 33.4578 -116.2307 48° Northeast 474 545 25,600 984 Climbing FlightAware ADS-B
Sat 12:36:40 AM 33.5044 -116.1690 48° Northeast 478 550 26,100 1,075 Climbing FlightAware ADS-B
Sat 12:37:16 AM 33.5590 -116.0974 48° Northeast 481 554 26,800 1,000 Climbing FlightAware ADS-B (KBNG)
Sat 12:37:52 AM 33.6094 -116.0312 48° Northeast 485 558 27,300 957 Climbing FlightAware ADS-B
Sat 12:38:25 AM 33.6590 -115.9657 48° Northeast 486 559 27,900 1,114 Climbing FlightAware ADS-B (KBNG)
Sat 12:39:02 AM 33.7194 -115.8859 48° Northeast 488 562 28,600 1,000 Climbing FlightAware ADS-B (KBNG)
Sat 12:39:37 AM 33.7739 -115.8137 48° Northeast 486 559 29,100 943 Climbing FlightAware ADS-B
Sat 12:40:12 AM 33.8269 -115.7435 48° Northeast 486 559 29,700 986 Climbing FlightAware ADS-B
Sat 12:40:50 AM 33.8822 -115.6700 48° Northeast 486 559 30,300 1,000 Climbing FlightAware ADS-B
Sat 12:41:36 AM 33.9523 -115.5766 48° Northeast 484 557 31,100 1,017 Climbing FlightAware ADS-B
Sat 12:42:48 AM 34.0602 -115.4323 48° Northeast 481 554 32,300 991 Climbing FlightAware ADS-B
Sat 12:43:31 AM 34.1234 -115.3475 48° Northeast 478 550 33,000 538 Climbing FlightAware ADS-B
Sat 12:44:06 AM 34.1765 -115.2761 48° Northeast 488 562 33,000  Level FlightAware ADS-B
Sat 12:44:55 AM 34.2508 -115.1760 48° Northeast 496 571 33,000  Level FlightAware ADS-B
Sat 12:45:56 AM 34.3450 -115.0486 48° Northeast 496 571 33,000  Level FlightAware ADS-B
Sat 12:46:40 AM 34.4117 -114.9583 48° Northeast 490 564 33,000  Level FlightAware ADS-B
Sat 12:47:33 AM 34.4923 -114.8490 48° Northeast 491 565 33,000  Level FlightAware ADS-B
Sat 12:48:25 AM 34.5708 -114.7417 48° Northeast 489 563 33,000  Level FlightAware ADS-B
Sat 12:49:11 AM 34.6393 -114.6477 48° Northeast 488 562 33,000  Level FlightAware ADS-B
Sat 12:50:08 AM 34.7255 -114.5292 48° Northeast 490 564 33,000  Level FlightAware ADS-B
Sat 12:50:45 AM 34.7745 -114.4474 54° Northeast 488 562 33,000  Level FlightAware ADS-B
Sat 12:51:22 AM 34.8163 -114.3581 60° Northeast 490 564 33,000  Level FlightAware ADS-B
Sat 12:51:57 AM 34.8539 -114.2740 61° Northeast 490 564 33,000  Level FlightAware ADS-B
Sat 12:53:03 AM 34.9262 -114.1107 62° Northeast 491 565 33,000  Level FlightAware ADS-B
Sat 12:54:06 AM 34.9936 -113.9567 62° Northeast 491 565 33,000  Level FlightAware ADS-B
Sat 12:54:46 AM 35.0367 -113.8580 62° Northeast 492 566 33,000  Level FlightAware ADS-B
Sat 12:55:30 AM 35.0841 -113.7487 62° Northeast 494 568 33,000  Level FlightAware ADS-B
Sat 12:56:10 AM 35.1265 -113.6509 62° Northeast 495 570 33,000  Level FlightAware ADS-B
Sat 12:56:42 AM 35.1616 -113.5701 62° Northeast 497 572 33,000  Level FlightAware ADS-B
Sat 12:57:14 AM 35.1959 -113.4905 62° Northeast 499 574 33,000  Level FlightAware ADS-B
Sat 12:57:57 AM 35.2426 -113.3817 62° Northeast 500 575 33,000  Level FlightAware ADS-B
Sat 12:58:37 AM 35.2855 -113.2816 62° Northeast 500 575 33,000  Level FlightAware ADS-B
Sat 12:59:19 AM 35.3300 -113.1775 62° Northeast 501 577 33,000  Level FlightAware ADS-B
Sat 01:00:03 AM 35.3783 -113.0643 62° Northeast 500 575 33,000  Level FlightAware ADS-B
Sat 01:00:44 AM 35.4219 -112.9615 62° Northeast 499 574 33,000  Level FlightAware ADS-B
Sat 01:01:21 AM 35.4608 -112.8698 63° Northeast 500 575 33,000  Level FlightAware ADS-B
Sat 01:01:51 AM 35.4916 -112.7968 63° Northeast 500 575 33,000  Level FlightAware ADS-B
Sat 01:02:22 AM 35.5250 -112.7174 63° Northeast 500 575 33,000  Level FlightAware ADS-B
Sat 01:02:52 AM 35.5582 -112.6385 63° Northeast 501 577 33,000  Level FlightAware ADS-B
Sat 01:03:53 AM 35.5734 -112.6024 63° Northeast 503 579 33,000  Level FlightAware ADS-B
Sat 01:04:52 AM 35.6852 -112.3346 63° Northeast 503 579 33,000  Level FlightAware ADS-B
Sat 01:05:37 AM 35.7326 -112.2207 63° Northeast 503 579 33,000  Level FlightAware ADS-B
Sat 01:06:20 AM 35.7776 -112.1119 63° Northeast 503 579 33,000  Level FlightAware ADS-B
Sat 01:07:02 AM 35.8224 -112.0032 63° Northeast 502 578 33,000  Level FlightAware ADS-B
Sat 01:07:45 AM 35.8668 -111.8954 63° Northeast 504 580 33,000  Level FlightAware ADS-B
Sat 01:08:27 AM 35.9112 -111.7869 63° Northeast 507 583 33,000  Level FlightAware ADS-B
Sat 01:09:52 AM 35.9689 -111.6458 63° Northeast 513 590 33,000  Level FlightAware ADS-B
Sat 01:11:01 AM 36.0722 -111.3908 63° Northeast 508 585 33,000  Level FlightAware ADS-B
Sat 01:11:58 AM 36.1323 -111.2518 62° Northeast 501 577 33,000  Level FlightAware ADS-B
Sat 01:12:45 AM 36.1924 -111.1458 55° Northeast 497 572 33,000  Level FlightAware ADS-B
Sat 01:14:01 AM 36.3029 -110.9585 54° Northeast 500 575 33,000  Level FlightAware ADS-B
Sat 01:15:01 AM 36.3828 -110.8206 54° Northeast 503 579 33,000  Level FlightAware ADS-B
Sat 01:15:38 AM 36.4340 -110.7320 54° Northeast 504 580 33,000  Level FlightAware ADS-B (KGUC)
Sat 01:16:12 AM 36.4808 -110.6508 54° Northeast 504 580 33,000  Level FlightAware ADS-B (KGUC)
Sat 01:16:52 AM 36.5354 -110.5559 54° Northeast 504 580 33,000  Level FlightAware ADS-B (KGUC)
Sat 01:17:41 AM 36.6012 -110.4413 54° Northeast 504 580 33,000  Level FlightAware ADS-B (KGUC)
Sat 01:18:12 AM 36.6381 -110.3768 55° Northeast 506 582 33,000  Level FlightAware ADS-B (KGUC)
Sat 01:18:53 AM 36.6948 -110.2774 55° Northeast 509 586 33,000  Level FlightAware ADS-B (KGUC)
Sat 01:19:33 AM 36.7521 -110.1764 55° Northeast 507 583 33,000  Level FlightAware ADS-B (KGUC)
Sat 01:20:12 AM 36.8053 -110.0827 55° Northeast 508 585 33,000  Level FlightAware ADS-B (KGUC)
Sat 01:20:42 AM 36.8467 -110.0096 55° Northeast 510 587 33,000  Level FlightAware ADS-B (KGUC)
Sat 01:21:15 AM 36.8903 -109.9321 55° Northeast 511 588 33,000  Level FlightAware ADS-B (KGUC)
Sat 01:21:45 AM 36.9305 -109.8606 55° Northeast 510 587 33,000  Level FlightAware ADS-B (KGUC)
Sat 01:22:25 AM 36.9855 -109.7625 55° Northeast 508 585 33,000  Level FlightAware ADS-B (KGUC)
Sat 01:23:04 AM 37.0358 -109.6729 55° Northeast 509 586 33,000  Level FlightAware ADS-B (KGUC)
Sat 01:23:34 AM 37.0795 -109.5948 55° Northeast 509 586 33,000  Level FlightAware ADS-B (KGUC)
Sat 01:24:05 AM 37.1201 -109.5221 55° Northeast 511 588 33,000  Level FlightAware ADS-B (KGUC)
Sat 01:24:35 AM 37.1590 -109.4522 55° Northeast 512 589 33,000  Level FlightAware ADS-B (KGUC)
Sat 01:25:09 AM 37.2075 -109.3649 55° Northeast 513 590 33,000  Level FlightAware ADS-B
Sat 01:25:44 AM 37.2546 -109.2795 55° Northeast 511 588 33,000  Level FlightAware ADS-B (KGUC)
Sat 01:26:14 AM 37.2948 -109.2067 55° Northeast 505 581 33,000  Level FlightAware ADS-B (KGUC)
Sat 01:26:45 AM 37.3329 -109.1316 57° Northeast 517 595 33,000  Level FlightAware ADS-B (KGUC)
Sat 01:27:17 AM 37.3613 -109.0398 69° East 523 602 33,000  Level FlightAware ADS-B
Sat 01:27:55 AM 37.3928 -108.9324 70° East 523 602 33,000  Level FlightAware ADS-B (KGUC)
Sat 01:28:25 AM 37.4181 -108.8468 70° East 523 602 33,000  Level FlightAware ADS-B (KGUC)
Sat 01:28:55 AM 37.4427 -108.7629 70° East 523 602 33,000  Level FlightAware ADS-B (KGUC)
Sat 01:29:25 AM 37.4665 -108.6815 70° East 522 601 33,000  Level FlightAware ADS-B (KGUC)
Sat 01:29:55 AM 37.4935 -108.5898 70° East 523 602 33,000  Level FlightAware ADS-B
Sat 01:30:27 AM 37.5202 -108.4979 70° East 525 604 33,000  Level FlightAware ADS-B
Sat 01:31:05 AM 37.5515 -108.3900 70° East 532 612 33,000 265 Level FlightAware ADS-B (KGUC)
Sat 01:31:35 AM 37.5766 -108.3028 70° East 528 608 33,300 800 Climbing FlightAware ADS-B (KGUC)
Sat 01:32:05 AM 37.6014 -108.2166 70° East 522 601 33,800 968 Climbing FlightAware ADS-B (KGUC)
Sat 01:32:37 AM 37.6275 -108.1257 70° East 517 595 34,300 968 Climbing FlightAware ADS-B
Sat 01:33:07 AM 37.6522 -108.0398 70° East 512 589 34,800 700 Climbing FlightAware ADS-B
Sat 01:33:37 AM 37.6761 -107.9561 70° East 513 590 35,000 200 Climbing FlightAware ADS-B
Sat 01:34:07 AM 37.7003 -107.8710 70° East 517 595 35,000  Level FlightAware ADS-B
Sat 01:34:37 AM 37.7244 -107.7859 70° East 522 601 35,000  Level FlightAware ADS-B
Sat 01:35:07 AM 37.7471 -107.7054 70° East 526 605 35,000  Level FlightAware ADS-B
Sat 01:35:37 AM 37.7728 -107.6138 70° East 524 603 35,000  Level FlightAware ADS-B
Sat 01:36:07 AM 37.7973 -107.5270 70° East 526 605 35,000  Level FlightAware ADS-B
Sat 01:36:37 AM 37.8207 -107.4430 70° East 526 605 35,000  Level FlightAware ADS-B
Sat 01:37:07 AM 37.8448 -107.3567 70° East 525 604 35,000  Level FlightAware ADS-B
Sat 01:37:37 AM 37.8698 -107.2669 71° East 524 603 35,000  Level FlightAware ADS-B
Sat 01:38:07 AM 37.8934 -107.1819 71° East 524 603 35,000  Level FlightAware ADS-B
Sat 01:38:37 AM 37.9174 -107.0948 71° East 525 604 35,000  Level FlightAware ADS-B
Sat 01:39:07 AM 37.9407 -107.0100 71° East 523 602 35,000  Level FlightAware ADS-B
Sat 01:39:37 AM 37.9656 -106.9196 71° East 528 608 35,000  Level FlightAware ADS-B
Sat 01:40:07 AM 37.9893 -106.8327 71° East 526 605 35,000  Level FlightAware ADS-B
Sat 01:40:37 AM 38.0127 -106.7471 71° East 527 606 35,000  Level FlightAware ADS-B
Sat 01:41:07 AM 38.0371 -106.6572 71° East 526 605 35,000  Level FlightAware ADS-B
Sat 01:41:37 AM 38.0606 -106.5708 71° East 528 608 35,000  Level FlightAware ADS-B
Sat 01:42:07 AM 38.0844 -106.4829 71° East 528 608 35,000  Level FlightAware ADS-B
Sat 01:42:37 AM 38.1068 -106.3997 71° East 529 609 35,000  Level FlightAware ADS-B
Sat 01:43:07 AM 38.1315 -106.3076 71° East 530 610 35,000  Level FlightAware ADS-B
Sat 01:43:37 AM 38.1482 -106.2455 71° East 530 610 35,000  Level FlightAware ADS-B (KGUC)
Sat 01:44:07 AM 38.1774 -106.1358 71° East 529 609 35,000  Level FlightAware ADS-B
Sat 01:44:40 AM 38.2039 -106.0355 71° East 522 601 35,000  Level FlightAware ADS-B (KEIK)
Sat 01:45:11 AM 38.2241 -105.9598 71° East 528 608 35,000  Level FlightAware ADS-B (KEIK)
Sat 01:45:45 AM 38.2540 -105.8471 71° East 531 611 35,000 86 Level FlightAware ADS-B
Sat 01:46:21 AM 38.2818 -105.7407 72° East 527 606 35,100  Climbing FlightAware ADS-B (KEIK)
Sat 01:47:00 AM 38.3126 -105.6227 72° East 528 608 35,000 -87 Descending FlightAware ADS-B (KEIK)
Sat 01:47:30 AM 38.3355 -105.5346 72° East 525 604 35,000  Level FlightAware ADS-B (KEIK)
Sat 01:48:00 AM 38.3579 -105.4486 72° East 523 602 35,000  Level FlightAware ADS-B (KEIK)
Sat 01:48:31 AM 38.3814 -105.3577 72° East 522 601 35,000  Level FlightAware ADS-B (KEIK)
Sat 01:49:02 AM 38.4046 -105.2678 72° East 520 598 35,000  Level FlightAware ADS-B (KEIK)
Sat 01:49:32 AM 38.4266 -105.1823 72° East 521 600 35,000  Level FlightAware ADS-B (KEIK)
Sat 01:50:12 AM 38.4570 -105.0633 72° East 521 600 35,000  Level FlightAware ADS-B (KEIK)
Sat 01:50:51 AM 38.4858 -104.9497 72° East 518 596 35,000  Level FlightAware ADS-B (KEIK)
Sat 01:51:22 AM 38.5086 -104.8600 72° East 518 596 35,000  Level FlightAware ADS-B (KEIK)
Sat 01:52:01 AM 38.5352 -104.7551 72° East 519 597 35,000  Level FlightAware ADS-B (KEIK)
Sat 01:52:32 AM 38.5601 -104.6561 72° East 523 602 35,000  Level FlightAware ADS-B (KEIK)
Sat 01:53:06 AM 38.5854 -104.5546 72° East 528 608 35,000  Level FlightAware ADS-B
Sat 01:53:41 AM 38.6110 -104.4521 72° East 529 609 35,000  Level FlightAware ADS-B (KEIK)
Sat 01:54:11 AM 38.6330 -104.3634 72° East 527 606 35,000  Level FlightAware ADS-B (KEIK)
Sat 01:54:42 AM 38.6556 -104.2719 72° East 525 604 35,000  Level FlightAware ADS-B (KEIK)
Sat 01:55:18 AM 38.6812 -104.1685 72° East 526 605 35,000  Level FlightAware ADS-B
Sat 01:55:51 AM 38.7017 -104.0848 73° East 525 604 35,000  Level FlightAware ADS-B
Sat 01:56:21 AM 38.7278 -103.9773 73° East 519 597 35,000  Level FlightAware ADS-B (KEIK)
Sat 01:56:51 AM 38.7492 -103.8899 73° East 521 600 35,000  Level FlightAware ADS-B (KEIK)
Sat 01:57:22 AM 38.7710 -103.8005 73° East 524 603 35,000  Level FlightAware ADS-B (KEIK)
Sat 01:58:01 AM 38.7986 -103.6855 73° East 523 602 35,000  Level FlightAware ADS-B (KEIK)
Sat 01:58:32 AM 38.8210 -103.5924 73° East 522 601 35,000  Level FlightAware ADS-B (KEIK)
Sat 01:59:03 AM 38.8427 -103.5018 73° East 520 598 35,000  Level FlightAware ADS-B (KEIK)
Sat 01:59:42 AM 38.8682 -103.3952 73° East 520 598 35,000  Level FlightAware ADS-B
Sat 02:00:13 AM 38.8922 -103.2940 73° East 520 598 35,000  Level FlightAware ADS-B (KEIK)
Sat 02:00:47 AM 38.9153 -103.1966 73° East 520 598 35,000  Level FlightAware ADS-B
Sat 02:01:23 AM 38.9407 -103.0887 73° East 521 600 35,000  Level FlightAware ADS-B (KEIK)
Sat 02:01:53 AM 38.9616 -102.9996 73° East 523 602 35,000  Level FlightAware ADS-B (KEIK)
Sat 02:02:27 AM 38.9821 -102.9114 73° East 524 603 35,000  Level FlightAware ADS-B
Sat 02:03:00 AM 39.0082 -102.7993 73° East 526 605 35,000  Level FlightAware ADS-B
Sat 02:03:33 AM 39.0307 -102.7022 73° East 528 608 35,000  Level FlightAware ADS-B (KEIK)
Sat 02:04:12 AM 39.0580 -102.5833 73° East 531 611 35,000  Level FlightAware ADS-B (KEIK)
Sat 02:04:51 AM 39.0849 -102.4661 74° East 530 610 35,000  Level FlightAware ADS-B
Sat 02:05:23 AM 39.1036 -102.3839 74° East 529 609 35,000  Level FlightAware ADS-B
Sat 02:05:55 AM 39.1291 -102.2714 74° East 528 608 35,000  Level FlightAware ADS-B (KEIK)
Sat 02:06:29 AM 39.1483 -102.1868 74° East 526 605 35,000  Level FlightAware ADS-B
Sat 02:07:03 AM 39.1746 -102.0702 74° East 527 606 35,000  Level FlightAware ADS-B
Sat 02:07:33 AM 39.1954 -101.9777 74° East 528 608 35,000  Level FlightAware ADS-B (KEIK)
Sat 02:08:09 AM 39.2198 -101.8683 74° East 528 608 35,000  Level FlightAware ADS-B
Sat 02:08:43 AM 39.2390 -101.7814 74° East 527 606 35,000  Level FlightAware ADS-B
Sat 02:09:16 AM 39.2622 -101.6766 74° East 526 605 35,000  Level FlightAware ADS-B
Sat 02:09:54 AM 39.2838 -101.5788 74° East 527 606 35,000  Level FlightAware ADS-B (KEIK)
Sat 02:10:32 AM 39.3095 -101.4614 74° East 529 609 35,000  Level FlightAware ADS-B (KEIK)
Sat 02:11:05 AM 39.3366 -101.3371 74° East 531 611 35,000  Level FlightAware ADS-B
Sat 02:11:39 AM 39.3527 -101.2630 74° East 533 613 35,000  Level FlightAware ADS-B
Sat 02:12:10 AM 39.3793 -101.1398 74° East 532 612 35,000  Level FlightAware ADS-B
Sat 02:12:42 AM 39.3962 -101.0609 74° East 532 612 35,000  Level FlightAware ADS-B
Sat 02:13:29 AM 39.4231 -100.9352 74° East 531 611 35,000  Level FlightAware ADS-B
Sat 02:14:09 AM 39.4539 -100.7906 75° East 531 611 35,000  Level FlightAware ADS-B
Sat 02:14:52 AM 39.4808 -100.6633 75° East 532 612 35,000  Level FlightAware ADS-B
Sat 02:17:08 AM 39.5681 -100.2445 75° East 532 612 35,000  Level FlightAware ADS-B
Sat 02:18:31 AM 39.6197 -99.9958 75° East 530 610 35,000  Level Denver Center
Sat 02:19:32 AM 39.6567 -99.8119 75° East 534 615 35,000  Level Denver Center
Sat 02:20:32 AM 39.6942 -99.6264 75° East 534 615 35,000  Level Denver Center
Sat 02:21:32 AM 39.7311 -99.4411 75° East 532 612 35,000  Level Denver Center
Sat 02:22:33 AM 39.7678 -99.2561 75° East 531 611 35,000  Level Denver Center
Sat 02:23:33 AM 39.8033 -99.0708 76° East 530 610 35,000  Level Denver Center
Sat 02:24:33 AM 39.8400 -98.8847 76° East 532 612 35,000  Level Denver Center
Sat 02:25:19 AM 39.8681 -98.7353 76° East 533 613 35,000  Level Minneapolis Center
Sat 02:26:20 AM 39.9033 -98.5506 76° East 531 611 35,000  Level Minneapolis Center
Sat 02:27:20 AM 39.9383 -98.3678 76° East 525 604 35,000  Level Minneapolis Center
Sat 02:28:20 AM 39.9722 -98.1836 76° East 524 603 35,000  Level Minneapolis Center
Sat 02:29:20 AM 40.0069 -98.0019 76° East 522 601 35,000  Level Minneapolis Center
Sat 02:30:20 AM 40.0400 -97.8192 77° East 520 598 35,000  Level Minneapolis Center
Sat 02:31:21 AM 40.0739 -97.6342 76° East 523 602 35,000  Level Minneapolis Center
Sat 02:32:21 AM 40.1067 -97.4506 77° East 522 601 35,000  Level Minneapolis Center
Sat 02:33:21 AM 40.1442 -97.2431 77° East 521 600 35,000  Level Minneapolis Center
Sat 02:34:21 AM 40.1772 -97.0578 77° East 524 603 35,000  Level Minneapolis Center
Sat 02:35:21 AM 40.2092 -96.8725 77° East 524 603 35,000  Level Minneapolis Center
Sat 02:36:21 AM 40.2408 -96.6872 77° East 524 603 35,000  Level Minneapolis Center
Sat 02:37:22 AM 40.2725 -96.5006 77° East 526 605 35,000  Level Minneapolis Center
Sat 02:38:22 AM 40.3042 -96.3161 77° East 525 604 35,000  Level Minneapolis Center
Sat 02:39:22 AM 40.3358 -96.1286 77° East 527 606 35,000  Level Minneapolis Center
Sat 02:40:23 AM 40.3672 -95.9408 78° East 529 609 35,000  Level Minneapolis Center
Sat 02:41:23 AM 40.3972 -95.7531 78° East 530 610 35,000  Level Minneapolis Center
Sat 02:42:23 AM 40.4278 -95.5658 78° East 529 609 35,000  Level Minneapolis Center
Sat 02:43:24 AM 40.4581 -95.3797 78° East 528 608 35,000  Level Minneapolis Center
Sat 02:44:24 AM 40.4878 -95.1914 78° East 528 608 35,000  Level Minneapolis Center
Sat 02:45:24 AM 40.5175 -95.0047 78° East 527 606 35,000  Level Minneapolis Center
Sat 02:46:24 AM 40.5467 -94.8167 78° East 527 606 35,000  Level Minneapolis Center
Sat 02:47:24 AM 40.5761 -94.6286 78° East 527 606 35,000  Level Minneapolis Center
Sat 02:48:25 AM 40.6033 -94.4414 79° East 525 604 35,000  Level Minneapolis Center
Sat 02:51:21 AM 40.6888 -93.8679 79° East 520 598 35,000  Level FlightAware ADS-B (LPVM)
Sat 02:52:36 AM 40.7189 -93.6572 79° East 519 597 35,000  Level Chicago Center
Sat 02:58:26 AM 40.8702 -92.5670 79° East 512 589 35,000  Level FlightAware ADS-B (LPVM)
Sat 02:59:17 AM 40.8899 -92.4205 80° East 502 578 35,000  Level FlightAware ADS-B (LPVM)
Sat 03:00:26 AM 40.9185 -92.2020 80° East 497 572 35,000  Level FlightAware ADS-B (LPVM)
Sat 03:01:46 AM 40.9492 -91.9632 80° East 494 568 35,000  Level FlightAware ADS-B (LPVM)
Sat 03:02:45 AM 40.9714 -91.7883 80° East 492 566 35,000  Level FlightAware ADS-B (LPVM)
Sat 03:03:25 AM 40.9852 -91.6790 80° East 492 566 35,000  Level FlightAware ADS-B (LPVM)
Sat 03:05:33 AM 41.0322 -91.3009 81° East 489 563 35,000  Level FlightAware ADS-B
Sat 03:06:23 AM 41.0408 -91.2292 81° East 494 568 35,000  Level FlightAware ADS-B
Sat 03:06:53 AM 41.0621 -91.0529 81° East 493 567 35,000  Level FlightAware ADS-B
Sat 03:07:23 AM 41.0726 -90.9637 81° East 491 565 35,000  Level FlightAware ADS-B
Sat 03:08:04 AM 41.0871 -90.8425 81° East 490 564 35,000  Level FlightAware ADS-B
Sat 03:08:37 AM 41.0987 -90.7436 81° East 485 558 35,000  Level FlightAware ADS-B (LPVM)
Sat 03:09:17 AM 41.1112 -90.6372 81° East 487 560 35,000  Level FlightAware ADS-B (EGPH / EDI)
Sat 03:09:52 AM 41.1244 -90.5236 81° East 492 566 35,000  Level FlightAware ADS-B
Sat 03:10:26 AM 41.1355 -90.4245 82° East 486 559 35,000  Level FlightAware ADS-B
Sat 03:10:56 AM 41.1456 -90.3343 81° East 485 558 35,000  Level FlightAware ADS-B
Sat 03:11:27 AM 41.1553 -90.2490 81° East 485 558 35,000  Level FlightAware ADS-B
Sat 03:12:17 AM 41.1713 -90.1067 81° East 486 559 35,000  Level FlightAware ADS-B
Sat 03:12:47 AM 41.1812 -90.0156 82° East 486 559 35,000  Level FlightAware ADS-B
Sat 03:13:17 AM 41.1910 -89.9264 82° East 486 559 35,000  Level FlightAware ADS-B
Sat 03:13:47 AM 41.2014 -89.8320 82° East 487 560 35,000  Level FlightAware ADS-B
Sat 03:14:17 AM 41.2108 -89.7451 82° East 487 560 35,000  Level FlightAware ADS-B
Sat 03:14:47 AM 41.2202 -89.6575 82° East 489 563 35,000  Level FlightAware ADS-B
Sat 03:15:17 AM 41.2295 -89.5702 82° East 489 563 35,000  Level FlightAware ADS-B
Sat 03:15:47 AM 41.2389 -89.4802 82° East 490 564 35,000  Level FlightAware ADS-B
Sat 03:16:17 AM 41.2481 -89.3926 82° East 490 564 35,000  Level FlightAware ADS-B
Sat 03:16:47 AM 41.2580 -89.2974 82° East 491 565 35,000  Level FlightAware ADS-B
Sat 03:17:17 AM 41.2671 -89.2102 82° East 493 567 35,000  Level FlightAware ADS-B
Sat 03:17:51 AM 41.2777 -89.1077 82° East 495 570 35,000  Level FlightAware ADS-B (EGPH / EDI)
Sat 03:18:18 AM 41.2862 -89.0242 82° East 496 571 35,000 105 Level FlightAware ADS-B (EGPH / EDI)
Sat 03:18:48 AM 41.2951 -88.9350 82° East 494 568 35,100  Climbing FlightAware ADS-B (EGPH / EDI)
Sat 03:19:27 AM 41.3069 -88.8185 82° East 493 567 35,000 -120 Descending FlightAware ADS-B
Sat 03:19:38 AM 41.3098 -88.7890 82° East 495 570 35,000  Level FlightAware ADS-B (EGPH / EDI)
Sat 03:20:10 AM 41.3192 -88.6932 83° East 496 571 35,000  Level FlightAware ADS-B (EGPH / EDI)
Sat 03:20:47 AM 41.3307 -88.5771 82° East 498 573 35,000  Level FlightAware ADS-B (EGPH / EDI)
Sat 03:21:17 AM 41.3390 -88.4904 83° East 497 572 35,000  Level FlightAware ADS-B
Sat 03:21:47 AM 41.3482 -88.3954 83° East 498 573 35,000  Level FlightAware ADS-B
Sat 03:22:17 AM 41.3568 -88.3040 83° East 496 571 35,000  Level FlightAware ADS-B
Sat 03:22:47 AM 41.3651 -88.2165 83° East 496 571 35,000  Level FlightAware ADS-B
Sat 03:23:17 AM 41.3739 -88.1232 83° East 494 568 35,000  Level FlightAware ADS-B
Sat 03:23:54 AM 41.3839 -88.0126 83° East 496 571 35,000  Level FlightAware ADS-B (EGPH / EDI)
Sat 03:24:27 AM 41.3932 -87.9118 83° East 498 573 35,000  Level FlightAware ADS-B
Sat 03:24:58 AM 41.4014 -87.8223 83° East 500 575 35,000  Level FlightAware ADS-B (EGPH / EDI)
Sat 03:25:29 AM 41.4102 -87.7241 83° East 501 577 35,000  Level FlightAware ADS-B
Sat 03:25:59 AM 41.4182 -87.6329 83° East 500 575 35,000  Level FlightAware ADS-B
Sat 03:26:29 AM 41.4265 -87.5392 83° East 500 575 35,000  Level FlightAware ADS-B
Sat 03:26:59 AM 41.4345 -87.4484 83° East 497 572 35,000  Level FlightAware ADS-B
Sat 03:27:30 AM 41.4389 -87.3979 83° East 495 570 35,000  Level FlightAware ADS-B (EGPH / EDI)
Sat 03:28:00 AM 41.4506 -87.2640 83° East 493 567 35,000  Level FlightAware ADS-B
Sat 03:28:39 AM 41.4595 -87.1600 83° East 492 566 35,000  Level FlightAware ADS-B (EGPH / EDI)
Sat 03:29:10 AM 41.4682 -87.0550 84° East 493 567 35,000  Level FlightAware ADS-B
Sat 03:29:40 AM 41.4756 -86.9662 84° East 493 567 35,000  Level FlightAware ADS-B
Sat 03:30:11 AM 41.4835 -86.8697 84° East 494 568 35,000  Level FlightAware ADS-B
Sat 03:30:41 AM 41.4902 -86.7852 84° East 495 570 35,000  Level FlightAware ADS-B
Sat 03:31:11 AM 41.4975 -86.6947 84° East 495 570 35,000  Level FlightAware ADS-B
Sat 03:31:41 AM 41.5052 -86.5996 84° East 496 571 35,000  Level FlightAware ADS-B
Sat 03:32:11 AM 41.5128 -86.5051 84° East 496 571 35,000  Level FlightAware ADS-B
Sat 03:32:41 AM 41.5196 -86.4188 84° East 496 571 35,000  Level FlightAware ADS-B
Sat 03:33:11 AM 41.5270 -86.3246 84° East 495 570 35,000  Level FlightAware ADS-B
Sat 03:33:43 AM 41.5342 -86.2304 84° East 494 568 35,000  Level FlightAware ADS-B
Sat 03:34:13 AM 41.5412 -86.1363 84° East 492 566 35,000  Level FlightAware ADS-B
Sat 03:34:43 AM 41.5480 -86.0463 84° East 492 566 35,000  Level FlightAware ADS-B
Sat 03:35:13 AM 41.5544 -85.9594 84° East 492 566 35,000  Level FlightAware ADS-B
Sat 03:35:43 AM 41.5615 -85.8649 84° East 491 565 35,000  Level FlightAware ADS-B
Sat 03:36:13 AM 41.5679 -85.7761 84° East 492 566 35,000  Level FlightAware ADS-B
Sat 03:36:43 AM 41.5742 -85.6872 85° East 493 567 35,000  Level FlightAware ADS-B
Sat 03:37:15 AM 41.5805 -85.5970 85° East 492 566 35,000  Level FlightAware ADS-B
Sat 03:37:45 AM 41.5870 -85.5045 85° East 492 566 35,000  Level FlightAware ADS-B
Sat 03:38:15 AM 41.5940 -85.4087 84° East 491 565 35,000  Level FlightAware ADS-B
Sat 03:38:45 AM 41.6003 -85.3186 85° East 492 566 35,000  Level FlightAware ADS-B
Sat 03:39:15 AM 41.6063 -85.2285 85° East 492 566 35,000  Level FlightAware ADS-B
Sat 03:39:45 AM 41.6123 -85.1362 85° East 494 568 35,000  Level FlightAware ADS-B
Sat 03:40:16 AM 41.6186 -85.0404 85° East 495 570 35,000  Level FlightAware ADS-B
Sat 03:40:47 AM 41.6248 -84.9461 85° East 497 572 35,000  Level FlightAware ADS-B
Sat 03:41:17 AM 41.6307 -84.8549 85° East 498 573 35,000  Level FlightAware ADS-B
Sat 03:41:56 AM 41.6382 -84.7364 85° East 498 573 35,000  Level FlightAware ADS-B
Sat 03:42:27 AM 41.6442 -84.6412 85° East 498 573 35,000  Level FlightAware ADS-B
Sat 03:43:07 AM 41.6515 -84.5210 85° East 493 567 35,000  Level FlightAware ADS-B
Sat 03:43:38 AM 41.6570 -84.4317 85° East 489 563 35,000  Level FlightAware ADS-B
Sat 03:44:42 AM 41.6611 -84.3642 85° East 494 568 35,000  Level FlightAware ADS-B
Sat 03:47:43 AM 41.7001 -83.6801 85° East 497 572 35,000  Level FlightAware ADS-B
Sat 03:49:11 AM 41.7136 -83.4389 85° East 499 574 35,000  Level Cleveland Center
Sat 03:50:11 AM 41.7225 -83.2547 86° East 501 577 35,000  Level Cleveland Center
Sat 03:51:11 AM 41.7314 -83.0700 86° East 502 578 35,000  Level Cleveland Center
Sat 03:52:12 AM 41.7397 -82.8850 86° East 503 579 35,000  Level Cleveland Center
Sat 03:53:12 AM 41.7481 -82.6989 87° East 504 580 35,000  Level Cleveland Center
Sat 03:54:12 AM 41.7567 -82.5133 86° East 503 579 35,000  Level Cleveland Center
Sat 03:55:12 AM 41.7650 -82.3250 87° East 507 583 35,000  Level Cleveland Center
Sat 03:56:12 AM 41.7725 -82.1381 87° East 506 582 35,000  Level Cleveland Center
Sat 03:57:12 AM 41.7806 -81.9403 87° East 504 580 35,000  Level Cleveland Center
Sat 04:02:50 AM 41.8003 -80.9290 87° East 502 578 35,000  Level FlightAware ADS-B (EPLB / LUZ)
Sat 04:03:33 AM 41.7968 -80.7267 91° East 502 578 35,000  Level FlightAware ADS-B (EPLB / LUZ)
Sat 04:04:25 AM 41.7939 -80.5650 91° East 503 579 35,000  Level FlightAware ADS-B (EPLB / LUZ)
Sat 04:05:05 AM 41.7916 -80.4436 91° East 503 579 35,000  Level FlightAware ADS-B (EPLB / LUZ)
Sat 04:07:43 AM 41.7810 -79.9567 92° East 504 580 35,000  Level FlightAware ADS-B (EPLB / LUZ)
Sat 04:08:21 AM 41.7778 -79.8324 92° East 505 581 35,000  Level FlightAware ADS-B (EPLB / LUZ)
Sat 04:08:53 AM 41.7758 -79.7552 92° East 505 581 35,000  Level FlightAware ADS-B (EPLB / LUZ)
Sat 04:09:33 AM 41.7720 -79.6133 92° East 506 582 35,000  Level FlightAware ADS-B (EPLB / LUZ)
Sat 04:10:10 AM 41.7690 -79.5004 92° East 507 583 35,000  Level FlightAware ADS-B (EPLB / LUZ)
Sat 04:11:32 AM 41.7619 -79.2542 92° East 510 587 35,000  Level FlightAware ADS-B (EPLB / LUZ)
Sat 04:12:12 AM 41.7570 -79.1081 93° East 509 586 35,000  Level FlightAware ADS-B (EPLB / LUZ)
Sat 04:12:46 AM 41.7551 -79.0462 92° East 500 575 35,000  Level FlightAware ADS-B (EPLB / LUZ)
Sat 04:15:11 AM 41.7383 -78.5481 92° East 501 577 35,000  Level FlightAware ADS-B (KWWD)
Sat 04:18:33 AM 41.7140 -77.9251 93° East 505 581 35,000  Level FlightAware ADS-B (KWWD)
Sat 04:19:14 AM 41.7086 -77.7987 93° East 505 581 35,000  Level FlightAware ADS-B (KWWD)
Sat 04:19:52 AM 41.7034 -77.6790 93° East 505 581 35,000  Level FlightAware ADS-B (KWWD)
Sat 04:20:24 AM 41.6992 -77.5819 93° East 506 582 35,000  Level FlightAware ADS-B (KWWD)
Sat 04:24:21 AM 41.6021 -76.8704 100° East 489 563 35,000  Level FlightAware ADS-B (KWWD)
Sat 04:24:59 AM 41.5735 -76.7645 110° East 481 554 35,000  Level FlightAware ADS-B (KWWD)
Sat 04:25:31 AM 41.5494 -76.6762 110° East 480 552 35,000  Level FlightAware ADS-B (KWWD)
Sat 04:26:01 AM 41.5265 -76.5926 110° East 481 554 35,000  Level FlightAware ADS-B (KWWD)
Sat 04:27:43 AM 41.4477 -76.3086 110° East 487 560 35,000 -129 Level FlightAware ADS-B (EPLB / LUZ)
Sat 04:28:20 AM 41.4188 -76.2061 111° Southeast 489 563 34,700 -1,756 Descending FlightAware ADS-B (EPLB / LUZ)
Sat 04:31:08 AM 41.2888 -75.7451 110° East 464 534 29,000 -2,109 Descending FlightAware ADS-B (KWWD)
Sat 04:32:36 AM 41.2144 -75.5145 113° Southeast 464 534 25,700 -2,146 Descending FlightAware ADS-B (KWWD)
Sat 04:33:25 AM 41.1733 -75.3911 114° Southeast 437 503 24,100 -1,899 Descending FlightAware ADS-B (KWWD)
Sat 04:33:55 AM 41.1486 -75.3178 114° Southeast 422 486 23,200 -971 Descending FlightAware ADS-B (KWWD)
Sat 04:34:33 AM 41.1187 -75.2296 114° Southeast 428 493 23,000 -176 Descending FlightAware ADS-B (KWWD)
Sat 04:35:03 AM 41.0939 -75.1564 114° Southeast 431 496 23,000 -514 Level FlightAware ADS-B (KWWD)
Sat 04:35:43 AM 41.0661 -75.0568 110° East 429 494 22,400 -917 Descending FlightAware ADS-B (KWWD)
Sat 04:36:15 AM 41.0479 -74.9777 107° East 434 499 21,900 -917 Descending FlightAware ADS-B (KWWD)
Sat 04:36:55 AM 41.0243 -74.8757 107° East 424 488 21,300 -943 Descending FlightAware ADS-B (KWWD)
Sat 04:37:25 AM 41.0071 -74.8018 107° East 420 483 20,800 -1,000 Descending FlightAware ADS-B (KWWD)
Sat 04:37:55 AM 40.9895 -74.7275 107° East 417 480 20,300 -957 Descending FlightAware ADS-B (KWWD)
Sat 04:38:34 AM 40.9674 -74.6336 107° East 412 474 19,700 -930 Descending FlightAware ADS-B (KWWD)
Sat 04:39:06 AM 40.9490 -74.5573 108° East 407 468 19,200 -600 Descending FlightAware ADS-B (KWWD)
Sat 04:39:44 AM 40.9220 -74.4691 112° Southeast 401 461 19,000 -176 Descending FlightAware ADS-B (KWWD)
Sat 04:40:14 AM 40.9006 -74.4000 112° Southeast 402 463 19,000  Level FlightAware ADS-B (KWWD)
Sat 04:40:45 AM 40.8791 -74.3296 112° Southeast 402 463 19,000  Level FlightAware ADS-B (KWWD)
Sat 04:41:15 AM 40.8588 -74.2628 112° Southeast 408 470 19,000  Level FlightAware ADS-B
Sat 04:41:56 AM 40.8299 -74.1669 112° Southeast 406 467 19,000 -1,111 Level FlightAware ADS-B (KWWD)
Sat 04:42:36 AM 40.8018 -74.0748 112° Southeast 397 457 17,500 -2,233 Descending FlightAware ADS-B (KWWD)
Sat 04:42:39 AM 40.8008 -74.0715 112° Southeast 401 461 17,400 -2,850 Descending FlightAware ADS-B (KSNC)
Sat 04:43:16 AM 40.7818 -74.0097 112° Southeast 405 466 15,600 -2,776 Descending FlightAware ADS-B
Sat 04:43:46 AM 40.7557 -73.9152 110° East 378 435 14,300 -2,912 Descending FlightAware ADS-B (KWWD)
Sat 04:44:24 AM 40.7356 -73.8352 108° East 371 427 12,300 -2,158 Descending FlightAware ADS-B (KWWD)
Sat 04:45:40 AM 40.8008 -74.0715 290° West 297 342 10,200 -1,948 Descending FlightAware ADS-B (KSNC)
Sat 04:48:15 AM 40.8008 -74.0715 290° West 255 293 4,800 -1,877 Descending FlightAware ADS-B (KSNC)
Sat 04:49:27 AM 40.5667 -73.5667 290° West 223 257 3,100 -857 Descending New York TRACON
Sat 04:50:21 AM 40.5833 -73.6167 294° West 171 197 3,000 -684 Descending New York TRACON
Sat 04:51:21 AM 40.6000 -73.6667 294° West 153 176 1,800 -1,050 Descending New York TRACON
Sat 04:52:21 AM 40.6167 -73.7167 294° West 142 163 900 -900 Descending New York TRACON

Login

Don't have an account? Register now (free) for customized features, flight alerts, and more!